Time;durP1;ratioP1;P1;durP2;ratioP2;P2;SDS_P1;SDS_P2;PMS_P1;PMS_P2;Temp;Humidity;BMP_temperature;BMP_pressure;BME280_temperature;BME280_humidity;BME280_pressure;Samples;Min_cycle;Max_cycle;Signal;HPM_P1;HPM_P2
2022/07/07 00:02:16;;;;;;;2.60;1.95;;;;;;;22.65;100.00;99368.63;1695864;84;21008;-72
2022/07/07 00:04:44;;;;;;;;;;;;;;;22.69;100.00;99364.59;1695150;84;21062;-73
2022/07/07 00:07:11;;;;;;;4.72;1.90;;;;;;;22.64;100.00;99357.98;1695998;84;20286;-72
2022/07/07 00:09:46;;;;;;;2.45;2.02;;;;;;;22.41;100.00;99368.27;1702087;82;21016;-72
2022/07/07 00:12:13;;;;;;;2.17;1.90;;;;;;;22.36;100.00;99366.09;1696030;83;21846;-71
2022/07/07 00:14:54;;;;;;;6.20;1.87;;;;;;;22.33;100.00;99360.48;1687625;84;20936;-72
2022/07/07 00:17:30;;;;;;;24.10;2.17;;;;;;;22.32;100.00;99362.48;1692126;83;21093;-72
2022/07/07 00:19:58;;;;;;;5.03;2.15;;;;;;;22.37;100.00;99356.45;1660310;86;20987;-73
2022/07/07 00:22:25;;;;;;;3.83;1.62;;;;;;;22.46;100.00;99358.84;1662515;86;20959;-72
2022/07/07 00:24:52;;;;;;;1.30;1.20;;;;;;;22.45;100.00;99363.46;1662627;85;22213;-72
2022/07/07 00:27:30;;;;;;;5.87;1.72;;;;;;;22.37;100.00;99370.48;1662569;86;20956;-71
2022/07/07 00:29:59;;;;;;;1.20;1.10;;;;;;;22.41;100.00;99368.27;1628118;86;21036;-72
2022/07/07 00:32:38;;;;;;;2.27;1.12;;;;;;;22.44;100.00;99361.84;1662136;85;21349;-70
2022/07/07 00:35:10;;;;;;;3.35;1.25;;;;;;;22.51;100.00;99356.21;1696357;84;21039;-73
2022/07/07 00:37:41;;;;;;;4.95;1.20;;;;;;;22.56;100.00;99355.80;1690854;84;21027;-72
2022/07/07 00:40:12;;;;;;;1.40;1.07;;;;;;;22.50;100.00;99353.22;1696077;83;21487;-73
2022/07/07 00:42:41;;;;;;;10.68;2.05;;;;;;;22.52;100.00;99348.59;1696417;83;20991;-73
2022/07/07 00:45:12;;;;;;;1.12;0.62;;;;;;;22.47;100.00;99345.59;1696265;84;21066;-72
2022/07/07 00:47:52;;;;;;;5.08;1.32;;;;;;;22.36;100.00;99342.24;1667639;84;21007;-71
2022/07/07 00:50:26;;;;;;;3.20;1.10;;;;;;;22.28;100.00;99339.23;1696290;83;21133;-72
2022/07/07 00:52:54;;;;;;;2.30;0.87;;;;;;;22.25;100.00;99333.03;1696067;84;20983;-71
2022/07/07 00:55:29;;;;;;;2.50;0.70;;;;;;;22.22;100.00;99332.45;1696252;84;21036;-72
2022/07/07 00:58:01;;;;;;;2.00;0.70;;;;;;;22.22;100.00;99330.45;1696188;82;21056;-71
2022/07/07 01:00:33;;;;;;;1.32;0.68;;;;;;;22.18;100.00;99328.87;1692803;83;20988;-73
2022/07/07 01:03:11;;;;;;;2.30;0.62;;;;;;;22.03;100.00;99326.67;1692787;83;20984;-72
2022/07/07 01:05:39;;;;;;;5.25;0.95;;;;;;;21.92;100.00;99326.08;1696880;83;21039;-73
2022/07/07 01:08:14;;;;;;;2.17;0.88;;;;;;;21.82;100.00;99324.91;1692035;83;21085;-73
2022/07/07 01:10:44;;;;;;;1.27;0.75;;;;;;;21.79;100.00;99326.30;1696204;83;21043;-72
2022/07/07 01:13:13;;;;;;;5.10;1.00;;;;;;;21.71;100.00;99331.09;1696165;83;21050;-71
2022/07/07 01:15:50;;;;;;;1.57;0.75;;;;;;;21.65;100.00;99336.30;1696214;83;21794;-71
2022/07/07 01:18:28;;;;;;;2.47;1.00;;;;;;;21.63;100.00;99338.72;1694244;84;21027;-72
2022/07/07 01:21:07;;;;;;;13.32;1.05;;;;;;;21.55;100.00;99351.10;1682691;84;20959;-72
2022/07/07 01:23:38;;;;;;;4.17;0.90;;;;;;;21.51;100.00;99357.52;1660603;84;21015;-72
2022/07/07 01:26:18;;;;;;;2.90;1.00;;;;;;;21.46;100.00;99368.34;1689807;84;21039;-73
2022/07/07 01:28:49;;;;;;;6.65;1.15;;;;;;;21.45;100.00;99369.52;1696167;84;21255;-72
2022/07/07 01:31:21;;;;;;;2.30;1.02;;;;;;;21.41;100.00;99372.31;1695587;83;21008;-73
2022/07/07 01:33:55;;;;;;;4.08;0.90;;;;;;;21.28;100.00;99370.50;1696247;83;21000;-72
2022/07/07 01:36:22;;;;;;;2.00;1.05;;;;;;;21.25;100.00;99374.10;1696485;83;21066;-71
2022/07/07 01:38:54;;;;;;;6.45;1.20;;;;;;;21.26;100.00;99382.70;1696246;84;21042;-72
2022/07/07 01:41:26;;;;;;;6.25;1.47;;;;;;;21.34;100.00;99371.70;1696202;84;21329;-73
2022/07/07 01:43:54;;;;;;;2.65;1.00;;;;;;;21.29;100.00;99366.48;1696275;84;21136;-72
2022/07/07 01:46:31;;;;;;;0.80;0.62;;;;;;;21.22;100.00;99365.88;1696271;83;21109;-72
2022/07/07 01:49:04;;;;;;;4.65;0.98;;;;;;;21.10;100.00;99371.25;1696231;83;21015;-75
2022/07/07 01:51:46;;;;;;;1.42;0.70;;;;;;;21.14;100.00;99381.06;1669042;84;21031;-72
2022/07/07 01:54:16;;;;;;;1.27;0.68;;;;;;;21.21;100.00;99390.09;1696406;83;21134;-72
2022/07/07 01:56:50;;;;;;;1.22;0.60;;;;;;;21.22;100.00;99386.89;1695920;83;21316;-71
2022/07/07 01:59:27;;;;;;;6.12;0.85;;;;;;;21.16;100.00;99373.89;1696303;84;21052;-73
2022/07/07 02:01:59;;;;;;;1.65;0.62;;;;;;;21.14;100.00;99380.48;1692251;83;21540;-71
2022/07/07 02:04:26;;;;;;;7.03;1.32;;;;;;;21.12;100.00;99388.47;1696138;84;20947;-73
2022/07/07 02:06:58;;;;;;;1.62;0.70;;;;;;;21.07;100.00;99395.85;1660911;84;21086;-72
2022/07/07 02:09:33;;;;;;;8.08;0.70;;;;;;;21.06;100.00;99388.66;1697335;83;20998;-72
2022/07/07 02:12:22;;;;;;;5.53;0.53;;;;;;;21.08;100.00;99392.46;1676949;85;21514;-73
2022/07/07 02:15:09;;;;;;;3.75;0.70;;;;;;;21.04;100.00;99394.66;1664987;86;21107;-73
2022/07/07 02:17:36;;;;;;;3.70;0.65;;;;;;;21.01;100.00;99392.66;1705754;84;21099;-73
2022/07/07 02:20:06;;;;;;;4.50;0.68;;;;;;;20.93;100.00;99386.83;1708510;83;21217;-73
2022/07/07 02:22:35;;;;;;;5.25;0.93;;;;;;;20.88;100.00;99385.16;1676944;85;21066;-72
2022/07/07 02:25:18;;;;;;;1.32;0.47;;;;;;;20.76;100.00;99389.11;1676505;84;21093;-72
2022/07/07 02:27:53;;;;;;;0.97;0.50;;;;;;;20.68;100.00;99391.67;1677012;85;21097;-72
2022/07/07 02:30:25;;;;;;;5.67;0.80;;;;;;;20.58;100.00;99393.82;1666259;86;21015;-71
2022/07/07 02:33:05;;;;;;;1.05;0.78;;;;;;;20.54;100.00;99407.79;1640107;84;21566;-73
2022/07/07 02:35:48;;;;;;;3.83;1.02;;;;;;;20.45;100.00;99404.55;1677081;85;20997;-71
2022/07/07 02:38:19;;;;;;;5.47;0.75;;;;;;;20.39;100.00;99408.31;1665261;86;20948;-73
2022/07/07 02:40:56;;;;;;;0.85;0.55;;;;;;;20.40;100.00;99407.91;1702486;83;21032;-73
2022/07/07 02:43:23;;;;;;;3.20;0.65;;;;;;;20.44;100.00;99412.14;1676833;85;21046;-73
2022/07/07 02:45:55;;;;;;;1.67;0.80;;;;;;;20.49;100.00;99417.98;1649261;85;21637;-72
2022/07/07 02:48:25;;;;;;;2.90;0.90;;;;;;;20.52;100.00;99418.59;1676783;84;21030;-73
2022/07/07 02:50:52;;;;;;;4.67;0.78;;;;;;;20.53;100.00;99424.38;1666904;86;21102;-72
2022/07/07 02:53:30;;;;;;;3.25;0.80;;;;;;;20.61;100.00;99427.42;1708385;84;21016;-72
2022/07/07 02:55:57;;;;;;;6.87;1.07;;;;;;;20.67;100.00;99432.88;1708233;84;21005;-72
2022/07/07 02:58:23;;;;;;;1.65;0.75;;;;;;;20.64;100.00;99428.04;1677008;85;21175;-73
2022/07/07 03:01:00;;;;;;;2.92;0.62;;;;;;;20.71;100.00;99427.27;1633633;86;21440;-74
2022/07/07 03:03:27;;;;;;;8.73;1.47;;;;;;;20.68;100.00;99434.47;1706990;84;21473;-73
2022/07/07 03:06:07;;;;;;;2.40;0.95;;;;;;;20.63;100.00;99429.24;1679784;84;21013;-70
2022/07/07 03:08:52;;;;;;;2.67;0.82;;;;;;;20.65;100.00;99425.46;1707993;83;21016;-73
2022/07/07 03:11:21;;;;;;;2.83;0.68;;;;;;;20.67;100.00;99420.28;1667017;84;20969;-74
2022/07/07 03:13:55;;;;;;;1.87;0.80;;;;;;;20.76;100.00;99421.30;1657858;86;20944;-72
2022/07/07 03:16:27;;;;;;;2.85;1.00;;;;;;;20.86;100.00;99418.38;1662434;86;21053;-73
2022/07/07 03:19:08;;;;;;;3.47;1.00;;;;;;;20.89;100.00;99420.38;1662132;86;20995;-73
2022/07/07 03:21:35;;;;;;;9.63;1.00;;;;;;;20.84;100.00;99420.75;1638838;86;21070;-72
2022/07/07 03:24:04;;;;;;;1.42;0.98;;;;;;;20.87;100.00;99421.36;1614891;86;21055;-72
2022/07/07 03:26:32;;;;;;;2.37;1.20;;;;;;;20.88;100.00;99424.97;1660423;86;21439;-72
2022/07/07 03:29:04;;;;;;;1.12;0.88;;;;;;;20.92;100.00;99429.97;1649921;85;21027;-74
2022/07/07 03:31:34;;;;;;;1.80;0.90;;;;;;;20.91;100.00;99432.58;1653486;86;21515;-72
2022/07/07 03:34:07;;;;;;;1.00;0.80;;;;;;;20.90;100.00;99426.76;1658376;86;21284;-72
2022/07/07 03:36:46;;;;;;;1.20;0.80;;;;;;;20.81;100.00;99431.34;1658809;85;21471;-73
2022/07/07 03:39:22;;;;;;;2.85;0.57;;;;;;;20.70;100.00;99432.67;1668392;85;21076;-73
2022/07/07 03:41:52;;;;;;;1.50;0.62;;;;;;;20.67;100.00;99433.47;1681564;85;21008;-74
2022/07/07 03:44:21;;;;;;;1.57;0.72;;;;;;;20.68;100.00;99442.87;1681074;85;21488;-72
2022/07/07 03:46:48;;;;;;;1.67;0.70;;;;;;;20.67;100.00;99441.27;1680608;85;21094;-71
2022/07/07 03:49:14;;;;;;;0.70;0.68;;;;;;;20.71;100.00;99442.66;1681595;85;21085;-73
2022/07/07 03:51:41;;;;;;;1.32;0.80;;;;;;;20.65;100.00;99447.85;1681345;85;21052;-73
2022/07/07 03:54:12;;;;;;;2.45;0.85;;;;;;;20.66;100.00;99452.83;1672004;84;21449;-74
2022/07/07 03:56:49;;;;;;;2.83;0.90;;;;;;;20.67;100.00;99444.66;1649566;86;20973;-73
2022/07/07 03:59:18;;;;;;;2.67;0.98;;;;;;;20.61;100.00;99452.61;1677567;84;21032;-75
2022/07/07 04:01:48;;;;;;;2.40;0.80;;;;;;;20.77;100.00;99444.51;1679258;84;21127;-74
2022/07/07 04:04:32;;;;;;;1.17;0.60;;;;;;;20.83;100.00;99442.14;1677005;85;21014;-73
2022/07/07 04:07:00;;;;;;;1.07;0.70;;;;;;;20.90;100.00;99453.36;1651747;85;21046;-74
2022/07/07 04:09:39;;;;;;;1.10;0.65;;;;;;;20.92;100.00;99464.38;1676040;85;20980;-75
2022/07/07 04:12:11;;;;;;;2.83;0.62;;;;;;;20.91;100.00;99467.58;1685125;83;21026;-74
2022/07/07 04:14:40;;;;;;;3.75;1.10;;;;;;;20.97;100.00;99470.81;1638926;86;21338;-74
2022/07/07 04:17:11;;;;;;;2.95;0.60;;;;;;;20.91;100.00;99461.36;1708531;84;21462;-74
2022/07/07 04:19:39;;;;;;;1.10;0.80;;;;;;;20.87;100.00;99453.56;1708006;84;21038;-72
2022/07/07 04:22:08;;;;;;;1.65;0.80;;;;;;;20.88;100.00;99462.77;1707574;82;21074;-71
2022/07/07 04:24:41;;;;;;;0.78;0.60;;;;;;;20.94;100.00;99468.80;1668472;85;21087;-73
2022/07/07 04:27:28;;;;;;;4.62;1.30;;;;;;;20.93;100.00;99470.83;1653038;85;21493;-73
2022/07/07 04:29:59;;;;;;;5.97;0.85;;;;;;;20.95;100.00;99476.03;1648726;85;21539;-72
2022/07/07 04:32:33;;;;;;;2.95;0.70;;;;;;;20.87;100.00;99463.94;1659797;85;21075;-72
2022/07/07 04:35:10;;;;;;;2.65;0.70;;;;;;;20.90;100.00;99474.35;1669497;85;21137;-73
2022/07/07 04:37:46;;;;;;;0.98;0.80;;;;;;;20.89;100.00;99472.76;1658489;84;21531;-74
2022/07/07 04:40:23;;;;;;;0.60;0.45;;;;;;;20.86;100.00;99470.75;1661483;84;21148;-73
2022/07/07 04:42:56;;;;;;;3.40;0.60;;;;;;;20.89;100.00;99467.97;1678352;84;21087;-72
2022/07/07 04:45:31;;;;;;;1.22;0.70;;;;;;;20.90;100.00;99465.95;1678034;84;21099;-72
2022/07/07 04:48:06;;;;;;;4.15;1.02;;;;;;;20.96;100.00;99474.83;1667870;83;21053;-71
2022/07/07 04:50:43;;;;;;;1.47;0.80;;;;;;;21.05;100.00;99471.08;1697135;83;21568;-72
2022/07/07 04:53:10;;;;;;;2.00;1.00;;;;;;;21.20;100.00;99465.52;1695502;83;21132;-74
2022/07/07 04:55:37;;;;;;;4.40;0.88;;;;;;;21.06;100.00;99476.88;1708877;82;21056;-74
2022/07/07 04:58:04;;;;;;;4.30;0.90;;;;;;;21.15;100.00;99480.72;1666987;83;21048;-73
2022/07/07 05:00:33;;;;;;;1.55;0.98;;;;;;;21.10;100.00;99480.48;1698389;82;21044;-72
2022/07/07 05:03:00;;;;;;;2.62;1.12;;;;;;;21.07;100.00;99485.47;1701681;83;21013;-73
2022/07/07 05:05:32;;;;;;;3.85;0.88;;;;;;;21.06;100.00;99500.67;1700812;81;21045;-74
2022/07/07 05:08:10;;;;;;;3.52;0.90;;;;;;;21.14;100.00;99502.31;1699746;82;21088;-74
2022/07/07 05:10:46;;;;;;;1.00;0.68;;;;;;;21.08;100.00;99495.49;1699728;83;21076;-73
2022/07/07 05:13:21;;;;;;;2.30;0.82;;;;;;;20.97;100.00;99497.42;1694287;83;21044;-75
2022/07/07 05:16:15;;;;;;;1.85;1.10;;;;;;;20.90;100.00;99496.16;1702403;82;21048;-73
2022/07/07 05:18:44;;;;;;;2.12;1.20;;;;;;;20.88;100.00;99494.34;1699841;83;21488;-74
2022/07/07 05:21:17;;;;;;;1.02;0.90;;;;;;;20.89;100.00;99500.76;1699388;82;21005;-73
2022/07/07 05:24:00;;;;;;;1.75;1.30;;;;;;;20.87;100.00;99492.75;1698869;83;21069;-74
2022/07/07 05:26:33;;;;;;;2.40;2.00;;;;;;;21.01;100.00;99496.26;1680817;83;21491;-75
2022/07/07 05:29:03;;;;;;;2.15;1.70;;;;;;;21.10;100.00;99499.30;1693372;83;21037;-74
2022/07/07 05:31:29;;;;;;;4.70;1.95;;;;;;;21.10;100.00;99509.88;1707115;82;21146;-73
2022/07/07 05:34:07;;;;;;;5.60;2.35;;;;;;;21.10;100.00;99499.30;1691711;84;21033;-74
2022/07/07 05:36:36;;;;;;;2.60;2.40;;;;;;;21.11;100.00;99491.91;1693802;83;21572;-74
2022/07/07 05:39:03;;;;;;;2.55;1.70;;;;;;;21.19;100.00;99494.73;1682530;83;20984;-75
2022/07/07 05:41:47;;;;;;;3.33;2.77;;;;;;;21.30;100.00;99498.37;1710482;82;20908;-76
2022/07/07 05:44:25;;;;;;;3.75;1.90;;;;;;;21.39;100.00;99491.80;1716409;83;21083;-74
2022/07/07 05:46:52;;;;;;;2.12;1.90;;;;;;;21.40;100.00;99492.02;1712040;82;20976;-75
2022/07/07 05:49:20;;;;;;;3.35;2.15;;;;;;;21.37;100.00;99499.81;1710978;82;21052;-75
2022/07/07 05:52:01;;;;;;;2.00;1.90;;;;;;;21.36;100.00;99500.99;1708082;82;21126;-75
2022/07/07 05:54:48;;;;;;;5.70;2.22;;;;;;;21.42;100.00;99504.22;1705654;83;21000;-77
2022/07/07 05:57:15;;;;;;;3.30;2.08;;;;;;;21.46;100.00;99508.44;1711972;82;21828;-76
2022/07/07 05:59:44;;;;;;;6.47;1.90;;;;;;;21.47;100.00;99508.05;1710978;82;21020;-75
2022/07/07 06:02:17;;;;;;;3.47;1.80;;;;;;;21.49;100.00;99515.47;1705103;82;21084;-76
2022/07/07 06:04:45;;;;;;;4.72;2.10;;;;;;;21.50;100.00;99513.44;1716435;82;21068;-73
2022/07/07 06:07:24;;;;;;;3.17;1.70;;;;;;;21.51;100.00;99518.66;1703553;83;21057;-73
2022/07/07 06:09:57;;;;;;;2.83;2.05;;;;;;;21.62;100.00;99524.89;1695802;82;21395;-74
2022/07/07 06:12:24;;;;;;;8.58;2.20;;;;;;;21.73;100.00;99529.14;1692975;83;21700;-70
2022/07/07 06:14:51;;;;;;;2.62;1.77;;;;;;;21.84;100.00;99535.59;1696640;83;21105;-70
2022/07/07 06:17:25;;;;;;;2.87;1.60;;;;;;;22.00;100.00;99531.03;1695397;83;20996;-72
2022/07/07 06:19:54;;;;;;;3.42;1.45;;;;;;;22.10;100.00;99526.63;1697005;83;21030;-70
2022/07/07 06:22:21;;;;;;;1.45;1.35;;;;;;;22.17;100.00;99526.42;1699061;83;21158;-72
2022/07/07 06:24:51;;;;;;;2.58;1.35;;;;;;;22.24;100.00;99527.23;1702862;83;21021;-72
2022/07/07 06:27:20;;;;;;;5.47;1.85;;;;;;;22.30;100.00;99519.80;1703771;82;21091;-71
2022/07/07 06:29:47;;;;;;;2.27;1.12;;;;;;;22.30;100.00;99522.60;1703048;82;21153;-72
2022/07/07 06:32:17;;;;;;;5.80;1.32;;;;;;;22.33;100.00;99529.63;1702818;82;21539;-71
2022/07/07 06:34:57;;;;;;;2.12;1.20;;;;;;;22.29;100.00;99534.45;1670408;84;21131;-72
2022/07/07 06:40:02;;;;;;;4.00;1.00;;;;;;;22.24;100.00;99539.86;1690629;83;20955;-70
2022/07/07 06:42:35;;;;;;;5.03;1.10;;;;;;;22.34;100.00;99537.45;1697971;83;20947;-75
2022/07/07 06:45:06;;;;;;;3.70;1.25;;;;;;;22.46;100.00;99541.86;1696667;83;21543;-75
2022/07/07 06:47:34;;;;;;;2.42;1.30;;;;;;;22.55;100.00;99542.27;1695919;83;21714;-76
2022/07/07 06:50:03;;;;;;;1.47;0.90;;;;;;;22.57;100.00;99541.23;1700934;83;20841;-75
2022/07/07 06:52:40;;;;;;;1.75;1.10;;;;;;;22.64;100.00;99543.27;1695921;83;21023;-75
2022/07/07 06:55:16;;;;;;;1.40;1.20;;;;;;;22.72;100.00;99535.03;1696191;83;21026;-74
2022/07/07 06:57:49;;;;;;;4.83;1.22;;;;;;;22.80;100.00;99549.88;1691223;84;20995;-76
2022/07/07 07:00:30;;;;;;;2.92;1.47;;;;;;;22.90;100.00;99529.99;1704616;82;20888;-75
2022/07/07 07:02:57;;;;;;;2.33;1.40;;;;;;;22.90;100.00;99527.78;1698756;82;21455;-74
2022/07/07 07:05:27;;;;;;;2.58;1.15;;;;;;;22.86;100.00;99524.38;1703163;82;21495;-76
2022/07/07 07:08:00;;;;;;;3.75;1.57;;;;;;;22.91;100.00;99529.40;1703310;82;21012;-75
2022/07/07 07:10:28;;;;;;;1.30;1.17;;;;;;;22.91;100.00;99530.80;1695757;82;21914;-74
2022/07/07 07:12:58;;;;;;;8.35;1.47;;;;;;;22.96;100.00;99533.98;1711388;82;21028;-74
2022/07/07 07:15:35;;;;;;;1.45;1.12;;;;;;;23.15;100.00;99527.70;1687913;83;20980;-76
2022/07/07 07:18:07;;;;;;;4.60;1.57;;;;;;;23.27;100.00;99532.08;1701388;84;21473;-75
2022/07/07 07:20:40;;;;;;;3.05;1.02;;;;;;;23.35;100.00;99534.27;1704699;84;21992;-75
2022/07/07 07:23:14;;;;;;;1.30;1.20;;;;;;;23.40;100.00;99533.04;1694256;83;20880;-73
2022/07/07 07:25:42;;;;;;;2.47;1.30;;;;;;;23.42;100.00;99537.69;1711095;82;21232;-73
2022/07/07 07:28:19;;;;;;;3.98;1.55;;;;;;;23.44;100.00;99532.46;1721676;82;21052;-72
2022/07/07 07:30:47;;;;;;;3.00;1.10;;;;;;;23.53;100.00;99532.80;1694164;82;21461;-72
2022/07/07 07:33:19;;;;;;;1.52;0.90;;;;;;;23.68;100.00;99533.52;1710999;82;20973;-73
2022/07/07 07:35:55;;;;;;;3.90;1.07;;;;;;;23.63;100.00;99531.14;1702664;82;20990;-72
2022/07/07 07:38:35;;;;;;;2.70;1.32;;;;;;;23.64;100.00;99533.36;1707133;83;21144;-71
2022/07/07 07:41:21;;;;;;;1.40;0.90;;;;;;;23.59;100.00;99534.59;1695627;83;21131;-73
2022/07/07 07:44:03;;;;;;;3.50;1.22;;;;;;;23.68;100.00;99527.09;1717737;82;20942;-72
2022/07/07 07:46:39;;;;;;;2.60;1.20;;;;;;;23.85;100.00;99527.41;1698540;83;21108;-72
2022/07/07 07:49:11;;;;;;;1.70;1.15;;;;;;;24.00;100.00;99528.12;1694354;82;20889;-69
2022/07/07 07:51:54;;;;;;;1.50;0.90;;;;;;;24.09;100.00;99529.06;1694171;82;20984;-71
2022/07/07 07:54:43;;;;;;;2.15;0.85;;;;;;;24.43;100.00;99525.58;1706444;82;20937;-74
2022/07/07 07:57:19;;;;;;;2.50;1.02;;;;;;;24.58;100.00;99531.09;1711070;82;20933;-72
2022/07/07 07:59:51;;;;;;;9.23;1.10;;;;;;;24.73;100.00;99529.74;1709182;82;21472;-72
2022/07/07 08:02:19;;;;;;;4.45;1.47;;;;;;;24.79;100.00;99532.28;1689962;82;21012;-73
2022/07/07 08:04:50;;;;;;;2.27;1.00;;;;;;;24.83;100.00;99529.44;1712846;82;21889;-72
2022/07/07 08:07:30;;;;;;;3.20;1.22;;;;;;;24.89;100.00;99534.02;1706561;83;20853;-72
2022/07/07 08:10:01;;;;;;;2.45;1.35;;;;;;;24.98;100.00;99530.11;1711873;82;21397;-69
2022/07/07 08:12:37;;;;;;;2.12;0.90;;;;;;;25.09;100.00;99532.81;1683830;82;21012;-72
2022/07/07 08:15:09;;;;;;;5.72;1.17;;;;;;;25.28;100.00;99532.77;1712951;82;20992;-73
2022/07/07 08:17:40;;;;;;;1.75;1.00;;;;;;;25.42;100.00;99539.45;1701737;83;21106;-72
2022/07/07 08:20:07;;;;;;;2.15;0.98;;;;;;;25.34;100.00;99530.30;1699328;83;21040;-72
2022/07/07 08:22:40;;;;;;;2.62;1.10;;;;;;;25.33;100.00;99532.94;1697072;83;21050;-72
2022/07/07 08:25:13;;;;;;;2.75;1.40;;;;;;;25.29;100.00;99534.98;1692390;84;20919;-72
2022/07/07 08:27:40;;;;;;;1.47;1.15;;;;;;;25.17;100.00;99546.20;1696648;83;21002;-72
2022/07/07 08:30:08;;;;;;;3.22;1.45;;;;;;;25.12;100.00;99541.02;1697179;83;21088;-72
2022/07/07 08:32:34;;;;;;;2.98;1.20;;;;;;;25.15;100.00;99543.80;1660439;84;20967;-72
2022/07/07 08:35:01;;;;;;;1.80;0.98;;;;;;;25.32;100.00;99545.41;1698235;83;21012;-72
2022/07/07 08:37:30;;;;;;;2.47;1.12;;;;;;;25.27;100.00;99547.28;1699194;83;21122;-71
2022/07/07 08:39:57;;;;;;;4.47;0.90;;;;;;;25.35;100.00;99545.20;1702743;83;21033;-73
2022/07/07 08:42:24;;;;;;;1.25;1.10;;;;;;;25.52;100.00;99549.01;1696595;84;21104;-72
2022/07/07 08:44:52;;;;;;;2.65;1.12;;;;;;;25.73;100.00;99550.76;1696686;83;20885;-73
2022/07/07 08:47:21;;;;;;;4.62;1.32;;;;;;;25.82;100.00;99540.97;1697108;83;20863;-72
2022/07/07 08:49:55;;;;;;;1.72;0.90;;;;;;;25.84;100.00;99544.17;1702424;83;20892;-73
2022/07/07 08:52:30;;;;;;;1.65;1.00;;;;;;;25.86;100.00;99544.55;1702270;83;20987;-70
2022/07/07 08:55:06;;;;;;;1.65;1.25;;;;;;;25.84;100.00;99553.44;1700717;83;20920;-72
2022/07/07 08:57:32;;;;;;;2.08;1.05;;;;;;;25.76;100.00;99555.55;1667917;84;21089;-71
2022/07/07 09:00:04;;;;;;;4.92;1.45;;;;;;;25.80;100.00;99556.10;1691110;83;20919;-72
2022/07/07 09:02:32;;;;;;;2.00;1.10;;;;;;;25.89;100.00;99558.61;1696701;83;21064;-71
2022/07/07 09:05:10;;;;;;;1.45;0.78;;;;;;;26.08;100.00;99552.69;1653965;83;20937;-71
2022/07/07 09:07:51;;;;;;;1.15;0.80;;;;;;;26.28;100.00;99561.24;1679686;85;21392;-71
2022/07/07 09:10:40;;;;;;;7.33;1.30;;;;;;;26.37;100.00;99567.79;1663709;83;20953;-72
2022/07/07 09:13:32;;;;;;;3.47;1.15;;;;;;;26.31;100.00;99571.67;1691011;83;21033;-73
2022/07/07 09:16:18;;;;;;;2.57;0.90;;;;;;;26.12;100.00;99571.16;1696419;83;21461;-71
2022/07/07 09:18:49;;;;;;;2.30;0.90;;;;;;;26.09;100.00;99569.19;1691896;83;21015;-73
2022/07/07 09:21:30;;;;;;;4.65;1.07;;;;;;;26.24;100.00;99566.94;1680110;84;20861;-71
2022/07/07 09:24:09;;;;;;;3.47;1.05;;;;;;;26.45;100.00;99571.28;1705224;83;21535;-72
2022/07/07 09:26:46;;;;;;;4.12;0.90;;;;;;;26.51;100.00;99575.84;1691346;84;20955;-71
2022/07/07 09:29:18;;;;;;;1.10;0.83;;;;;;;26.37;100.00;99578.45;1703606;83;20988;-71
2022/07/07 09:32:04;;;;;;;1.92;0.98;;;;;;;26.29;100.00;99576.16;1725790;83;20976;-72
2022/07/07 09:34:40;;;;;;;2.17;0.98;;;;;;;26.24;100.00;99578.23;1641161;86;21050;-71
2022/07/07 09:40:00;;;;;;;1.30;0.88;;;;;;;26.29;100.00;99576.16;1639406;86;20947;-71
2022/07/07 09:42:34;;;;;;;1.12;0.90;;;;;;;26.18;100.00;99577.13;1638281;87;21032;-70
2022/07/07 09:45:08;;;;;;;1.85;1.00;;;;;;;26.19;100.00;99582.95;1624453;86;21142;-71
2022/07/07 09:47:43;;;;;;;1.02;0.90;;;;;;;26.23;100.00;99587.94;1639949;86;21593;-71
2022/07/07 09:50:17;;;;;;;2.77;0.95;;;;;;;26.34;100.00;99582.77;1637158;86;21040;-72
2022/07/07 09:52:47;;;;;;;0.95;0.88;;;;;;;26.28;100.00;99586.65;1639100;87;21062;-71
2022/07/07 09:55:15;;;;;;;6.22;0.98;;;;;;;26.24;100.00;99588.72;1642621;86;21003;-70
2022/07/07 09:57:44;;;;;;;6.70;1.30;;;;;;;26.10;100.00;99585.52;1640621;86;21066;-71
2022/07/07 10:00:19;;;;;;;1.00;0.95;;;;;;;26.10;100.00;99579.24;1688073;83;21425;-71
2022/07/07 10:02:54;;;;;;;2.95;1.25;;;;;;;26.25;100.00;99571.34;1697739;83;21492;-71
2022/07/07 10:05:24;;;;;;;1.30;0.85;;;;;;;26.31;100.00;99580.14;1711627;83;20882;-70
2022/07/07 10:08:00;;;;;;;1.42;1.10;;;;;;;26.35;100.00;99583.75;1691573;83;21027;-70
2022/07/07 10:10:32;;;;;;;3.42;1.32;;;;;;;26.40;100.00;99581.05;1676157;84;20994;-71
2022/07/07 10:13:03;;;;;;;4.25;1.37;;;;;;;26.49;100.00;99577.68;1695969;83;21738;-72
2022/07/07 10:15:31;;;;;;;1.35;1.05;;;;;;;26.64;100.00;99583.07;1663441;84;21027;-70
2022/07/07 10:18:01;;;;;;;2.65;1.00;;;;;;;26.73;100.00;99583.33;1689927;82;21177;-70
2022/07/07 10:20:36;;;;;;;2.20;0.90;;;;;;;26.82;100.00;99578.51;1728747;82;21177;-71
2022/07/07 10:23:09;;;;;;;3.22;1.67;;;;;;;26.91;100.00;99578.76;1704117;83;20953;-71
2022/07/07 10:25:37;;;;;;;9.13;0.90;;;;;;;27.08;100.00;99571.20;1705498;82;21665;-71
2022/07/07 10:28:04;;;;;;;7.70;1.02;;;;;;;27.19;100.00;99575.22;1703921;82;21060;-70
2022/07/07 10:30:34;;;;;;;2.77;0.75;;;;;;;27.31;100.00;99571.58;1687349;82;20982;-71
2022/07/07 10:33:04;;;;;;;2.27;0.70;;;;;;;27.43;100.00;99574.37;1728851;82;21039;-72
2022/07/07 10:35:53;;;;;;;1.65;0.90;;;;;;;27.44;98.87;99575.34;1708406;82;20993;-72
2022/07/07 10:38:22;;;;;;;6.28;0.80;;;;;;;27.48;100.00;99571.64;1683854;83;21117;-71
2022/07/07 10:43:44;;;;;;;0.75;0.75;;;;;;;27.48;97.85;99554.67;1672392;84;21061;-71
2022/07/07 10:46:14;;;;;;;0.82;0.70;;;;;;;27.52;100.00;99555.41;1707774;82;20953;-72
2022/07/07 10:48:57;;;;;;;1.12;0.80;;;;;;;27.58;99.06;99561.52;1701926;82;21022;-71
2022/07/07 10:51:59;;;;;;;0.95;0.85;;;;;;;27.58;100.00;99564.95;1707960;82;21060;-71
2022/07/07 10:54:55;;;;;;;0.90;0.80;;;;;;;27.65;100.00;99567.64;1683731;83;21013;-73
2022/07/07 10:57:46;;;;;;;2.33;1.02;;;;;;;27.68;99.90;99570.20;1702776;82;20929;-72
2022/07/07 11:00:30;;;;;;;1.57;1.15;;;;;;;27.75;100.00;99565.84;1715195;82;21067;-73
2022/07/07 11:03:10;;;;;;;1.17;0.88;;;;;;;27.94;100.00;99571.25;1713851;82;21017;-71
2022/07/07 11:05:42;;;;;;;1.62;1.05;;;;;;;28.09;100.00;99568.09;1710292;83;21172;-74
2022/07/07 11:08:18;;;;;;;2.67;0.95;;;;;;;28.22;100.00;99571.66;1683471;83;21069;-72
2022/07/07 11:10:54;;;;;;;5.15;0.93;;;;;;;28.28;100.00;99576.96;1712238;82;23260;-72
2022/07/07 11:13:36;;;;;;;2.52;0.90;;;;;;;28.34;95.80;99582.94;1681867;83;21048;-74
2022/07/07 11:16:13;;;;;;;8.20;2.45;;;;;;;28.13;92.46;99580.13;1707607;84;20939;-71
2022/07/07 11:18:42;;;;;;;1.92;1.12;;;;;;;27.95;95.73;99582.77;1676538;84;22212;-73
2022/07/07 11:21:16;;;;;;;2.72;0.90;;;;;;;27.91;98.92;99577.02;1709094;82;21060;-72
2022/07/07 11:23:54;;;;;;;2.00;1.10;;;;;;;27.90;97.85;99581.87;1712577;82;21048;-70
2022/07/07 11:26:30;;;;;;;1.40;1.05;;;;;;;27.92;97.79;99582.84;1715531;82;21540;-71
2022/07/07 11:29:01;;;;;;;1.65;0.72;;;;;;;28.01;99.30;99585.85;1707751;82;20957;-73
2022/07/07 11:31:34;;;;;;;0.85;0.80;;;;;;;28.19;98.11;99583.23;1709161;82;21036;-72
2022/07/07 11:34:06;;;;;;;1.12;0.90;;;;;;;28.32;99.11;99583.31;1687917;82;21545;-73
2022/07/07 11:36:42;;;;;;;1.15;1.05;;;;;;;28.48;95.70;99581.15;1707574;82;21095;-72
2022/07/07 11:39:14;;;;;;;2.02;1.02;;;;;;;28.53;94.40;99579.81;1688629;82;21005;-72
2022/07/07 11:41:51;;;;;;;2.22;1.40;;;;;;;28.67;96.57;99581.48;1711609;82;21048;-76
2022/07/07 11:44:26;;;;;;;3.25;1.17;;;;;;;28.70;85.77;99576.95;1712112;82;21778;-68
2022/07/07 11:46:53;;;;;;;1.70;0.95;;;;;;;28.62;88.61;99585.66;1714216;82;20937;-68
2022/07/07 11:49:21;;;;;;;3.90;0.93;;;;;;;28.50;87.39;99592.03;1711171;82;20968;-71
2022/07/07 11:51:51;;;;;;;2.17;1.00;;;;;;;28.48;88.65;99592.48;1712720;82;20961;-70
2022/07/07 11:54:18;;;;;;;4.97;1.17;;;;;;;28.48;81.90;99586.01;1714248;82;20985;-68
2022/07/07 11:56:49;;;;;;;2.02;0.90;;;;;;;28.36;88.10;99595.40;1703692;82;21246;-68
2022/07/07 11:59:17;;;;;;;1.80;0.80;;;;;;;28.34;85.01;99582.30;1717207;81;20969;-70
2022/07/07 12:01:50;;;;;;;1.95;0.90;;;;;;;28.45;90.81;99586.29;1690282;82;21076;-70
2022/07/07 12:04:18;;;;;;;3.55;0.60;;;;;;;28.56;88.52;99588.83;1710838;82;21053;-70